createdAt,value
2018-10-05T00:02:09.203Z,69.37
2018-10-05T00:05:33.624Z,70.00
2018-10-05T00:08:58.033Z,69.19
2018-10-05T00:12:22.464Z,69.36
2018-10-05T00:15:46.971Z,69.06
2018-10-05T00:19:11.539Z,68.98
2018-10-05T00:22:36.119Z,68.51
2018-10-05T00:26:00.585Z,69.84
2018-10-05T00:29:25.002Z,69.65
2018-10-05T00:32:49.437Z,68.32
2018-10-05T00:36:13.859Z,68.50
2018-10-05T00:39:38.272Z,68.39
2018-10-05T00:43:02.641Z,68.77
2018-10-05T00:46:27.049Z,69.78
2018-10-05T00:49:51.460Z,68.93
2018-10-05T00:53:15.898Z,68.23
2018-10-05T00:56:40.434Z,67.62
2018-10-05T01:00:04.974Z,67.94
2018-10-05T01:03:29.415Z,67.81
2018-10-05T01:06:53.862Z,67.83
2018-10-05T01:10:18.276Z,67.73
2018-10-05T01:13:42.665Z,68.22
2018-10-05T01:17:07.127Z,68.17
2018-10-05T01:20:31.581Z,67.69
2018-10-05T01:23:56.033Z,67.14
2018-10-05T01:27:20.451Z,67.84
2018-10-05T01:30:44.890Z,67.34
2018-10-05T01:34:09.335Z,67.07
2018-10-05T01:37:33.760Z,67.05
2018-10-05T01:40:58.191Z,67.19
2018-10-05T01:44:22.616Z,67.60
2018-10-05T01:47:47.033Z,67.17
2018-10-05T01:51:11.473Z,67.39
2018-10-05T01:54:35.906Z,67.55
2018-10-05T01:58:00.344Z,67.11
2018-10-05T02:01:24.841Z,68.46
2018-10-05T02:04:49.284Z,67.72
2018-10-05T02:08:13.689Z,68.17
2018-10-05T02:11:38.145Z,68.18
2018-10-05T02:15:02.573Z,67.97
2018-10-05T02:18:27.025Z,68.22
2018-10-05T02:21:51.570Z,68.21
2018-10-05T02:25:16.036Z,68.18
2018-10-05T02:28:40.409Z,68.03
2018-10-05T02:32:04.814Z,69.13
2018-10-05T02:35:29.211Z,67.90
2018-10-05T02:38:53.669Z,67.87
2018-10-05T02:42:18.078Z,68.16
2018-10-05T02:45:42.517Z,68.45
2018-10-05T02:49:07.153Z,67.53
2018-10-05T02:52:31.567Z,67.95
2018-10-05T02:55:56.004Z,67.60
2018-10-05T02:59:20.398Z,67.57
2018-10-05T03:02:44.888Z,67.11
2018-10-05T03:06:09.290Z,68.27
2018-10-05T03:09:33.723Z,67.00
2018-10-05T03:12:58.188Z,68.11
2018-10-05T03:16:22.610Z,67.60
2018-10-05T03:19:47.120Z,68.66
2018-10-05T03:23:11.483Z,67.90
2018-10-05T03:26:35.905Z,68.04
2018-10-05T03:30:00.347Z,68.32
2018-10-05T03:33:24.768Z,67.63
2018-10-05T03:36:49.174Z,67.86
2018-10-05T03:40:13.617Z,67.85
2018-10-05T03:43:38.031Z,67.96
2018-10-05T03:47:02.498Z,67.74
2018-10-05T03:50:27.037Z,67.75
2018-10-05T03:53:51.461Z,68.32
2018-10-05T03:57:15.901Z,67.46
2018-10-05T04:00:40.364Z,68.13
2018-10-05T04:04:04.785Z,67.97
2018-10-05T04:07:29.219Z,67.68
2018-10-05T04:10:53.622Z,69.31
2018-10-05T04:14:18.223Z,69.48
2018-10-05T04:17:42.702Z,68.43
2018-10-05T04:21:07.128Z,68.81
2018-10-05T04:24:31.542Z,69.24
2018-10-05T04:27:56.011Z,69.37
2018-10-05T04:31:20.447Z,69.15
2018-10-05T04:34:45.025Z,69.17
2018-10-05T04:38:09.444Z,70.19
2018-10-05T04:41:33.871Z,71.15
2018-10-05T04:44:58.346Z,71.08
2018-10-05T04:48:22.740Z,71.36
2018-10-05T04:51:47.178Z,72.74
2018-10-05T04:55:11.654Z,72.71
2018-10-05T04:58:36.101Z,73.11
2018-10-05T05:02:00.718Z,73.07
2018-10-05T05:05:25.153Z,72.98
2018-10-05T05:08:49.576Z,73.11
2018-10-05T05:12:14.038Z,72.77
2018-10-05T05:15:38.422Z,71.21
2018-10-05T05:19:02.886Z,71.28
2018-10-05T05:22:27.400Z,71.05
2018-10-05T05:25:51.824Z,71.27
2018-10-05T05:29:16.304Z,70.66
2018-10-05T05:32:40.742Z,70.55
2018-10-05T05:36:05.236Z,69.90
2018-10-05T05:39:29.625Z,70.21
2018-10-05T05:42:53.989Z,69.38
2018-10-05T05:46:18.762Z,69.56
2018-10-05T05:49:43.195Z,69.92
2018-10-05T05:53:07.650Z,69.03
2018-10-05T05:56:32.082Z,69.85
2018-10-05T05:59:56.473Z,70.65
2018-10-05T06:03:20.890Z,68.78
2018-10-05T06:06:45.295Z,69.23
2018-10-05T06:10:09.744Z,69.09
2018-10-05T06:13:34.182Z,69.32
2018-10-05T06:16:58.829Z,68.98
2018-10-05T06:20:23.256Z,67.62
2018-10-05T06:23:47.667Z,67.94
2018-10-05T06:27:12.086Z,67.73
2018-10-05T06:30:36.531Z,67.09
2018-10-05T06:34:00.961Z,66.66
2018-10-05T06:37:28.383Z,66.58
2018-10-05T06:40:52.900Z,67.05
2018-10-05T06:44:17.279Z,66.91
2018-10-05T06:47:41.684Z,66.67
2018-10-05T06:51:06.181Z,66.32
2018-10-05T06:54:30.604Z,66.26
2018-10-05T06:57:55.006Z,65.47
2018-10-05T07:01:19.581Z,65.40
2018-10-05T07:04:44.003Z,65.20
2018-10-05T07:08:08.456Z,65.47
2018-10-05T07:11:32.886Z,65.04
2018-10-05T07:14:57.262Z,64.55
2018-10-05T07:18:21.696Z,64.61
2018-10-05T07:21:46.174Z,64.22
2018-10-05T07:25:10.610Z,64.59
2018-10-05T07:28:35.126Z,63.95
2018-10-05T07:31:59.417Z,63.67
2018-10-05T07:35:23.847Z,63.11
2018-10-05T07:38:48.274Z,62.39
2018-10-05T07:42:12.729Z,61.37
2018-10-05T07:45:37.143Z,61.41
2018-10-05T07:49:01.574Z,61.01
2018-10-05T07:52:26.030Z,61.08
2018-10-05T07:55:50.430Z,60.16
2018-10-05T07:59:14.878Z,60.20
2018-10-05T08:02:39.383Z,60.04
2018-10-05T08:06:03.884Z,59.70
2018-10-05T08:09:28.346Z,58.96
2018-10-05T08:12:52.751Z,58.61
2018-10-05T08:16:17.170Z,59.25
2018-10-05T08:19:41.631Z,58.85
2018-10-05T08:23:06.043Z,58.16
2018-10-05T08:26:30.508Z,57.45
2018-10-05T08:29:54.932Z,57.48
2018-10-05T08:33:19.341Z,57.59
2018-10-05T08:36:43.756Z,58.11
2018-10-05T08:40:09.256Z,57.18
2018-10-05T08:43:33.634Z,56.92
2018-10-05T08:46:58.107Z,56.33
2018-10-05T08:50:22.527Z,56.33
2018-10-05T08:53:46.919Z,56.45
2018-10-05T08:57:11.304Z,55.91
2018-10-05T09:00:35.850Z,55.70
2018-10-05T09:04:00.152Z,54.59
2018-10-05T09:07:24.833Z,54.32
2018-10-05T09:10:50.125Z,54.36
2018-10-05T09:14:14.527Z,54.01
2018-10-05T09:17:39.021Z,54.34
2018-10-05T09:21:03.432Z,53.46
2018-10-05T09:24:27.903Z,51.05
2018-10-05T09:27:52.311Z,49.12
2018-10-05T09:31:16.738Z,48.30
2018-10-05T09:34:41.169Z,46.50
2018-10-05T09:38:05.615Z,43.48
2018-10-05T09:41:30.028Z,38.89
2018-10-05T09:44:54.428Z,35.32
2018-10-05T09:48:18.880Z,34.30
2018-10-05T09:51:43.350Z,31.93
2018-10-05T09:55:07.733Z,29.48
2018-10-05T09:58:32.203Z,29.80
2018-10-05T10:02:01.958Z,27.89
2018-10-05T10:05:26.388Z,25.86
2018-10-05T10:08:50.792Z,27.23
2018-10-05T10:12:15.226Z,25.98
2018-10-05T10:15:39.638Z,26.04
2018-10-05T10:19:04.063Z,25.64
2018-10-05T10:22:28.504Z,24.83
2018-10-05T10:25:52.895Z,25.10
2018-10-05T10:29:17.445Z,24.20
2018-10-05T10:32:41.768Z,24.45
2018-10-05T10:36:06.388Z,24.51
2018-10-05T10:39:30.798Z,26.04
2018-10-05T10:42:55.223Z,27.04
2018-10-05T10:46:19.630Z,27.15
2018-10-05T10:49:44.021Z,24.68
2018-10-05T10:53:08.525Z,25.12
2018-10-05T10:56:32.965Z,24.52
2018-10-05T10:59:57.380Z,25.08
2018-10-05T11:03:21.789Z,24.68
2018-10-05T11:06:46.313Z,23.50
2018-10-05T11:10:10.698Z,23.50
2018-10-05T11:13:35.164Z,23.01
2018-10-05T11:16:59.729Z,23.83
2018-10-05T11:20:24.129Z,23.73
2018-10-05T11:23:48.611Z,22.07
2018-10-05T11:27:13.059Z,21.82
2018-10-05T11:30:37.684Z,23.24
2018-10-05T11:34:02.105Z,22.79
2018-10-05T11:37:26.517Z,21.78
2018-10-05T11:40:51.060Z,22.20
2018-10-05T11:44:15.426Z,21.70
2018-10-05T11:47:39.792Z,22.73
2018-10-05T11:51:04.248Z,21.53
2018-10-05T11:54:28.699Z,21.74
2018-10-05T11:57:53.151Z,20.83
2018-10-05T12:01:17.631Z,19.49
2018-10-05T12:04:42.054Z,20.83
2018-10-05T12:08:06.498Z,19.55
2018-10-05T12:11:30.946Z,18.30
2018-10-05T12:14:55.381Z,18.64
2018-10-05T12:18:19.894Z,18.42
2018-10-05T12:21:44.320Z,18.10
2018-10-05T12:25:08.833Z,17.86
2018-10-05T12:28:33.218Z,16.33
2018-10-05T12:31:57.787Z,15.26
2018-10-05T12:35:22.231Z,14.99
2018-10-05T12:38:46.673Z,14.35
2018-10-05T12:42:11.302Z,14.02
2018-10-05T12:45:35.716Z,14.90
2018-10-05T12:49:00.137Z,14.14
2018-10-05T12:52:24.736Z,14.57
2018-10-05T12:55:49.495Z,14.40
2018-10-05T12:59:13.890Z,12.56
2018-10-05T13:02:38.265Z,13.23
2018-10-05T13:06:02.701Z,12.20
2018-10-05T13:09:27.121Z,12.53
2018-10-05T13:12:51.622Z,13.30
2018-10-05T13:16:15.963Z,14.28
2018-10-05T13:19:40.398Z,14.13
2018-10-05T13:23:04.771Z,13.51
2018-10-05T13:26:29.191Z,13.49
2018-10-05T13:29:53.643Z,12.83
2018-10-05T13:33:18.089Z,12.94
2018-10-05T13:36:42.524Z,12.74
2018-10-05T13:40:06.980Z,14.44
2018-10-05T13:43:31.495Z,14.39
2018-10-05T13:46:55.941Z,13.13
2018-10-05T13:50:20.336Z,14.10
2018-10-05T13:53:44.744Z,14.63
2018-10-05T13:57:09.145Z,14.91
2018-10-05T14:00:33.559Z,15.86
2018-10-05T14:03:57.953Z,14.72
2018-10-05T14:07:22.345Z,15.95
2018-10-05T14:10:46.728Z,14.18
2018-10-05T14:14:11.097Z,15.77
2018-10-05T14:17:35.543Z,16.79
2018-10-05T14:21:00.023Z,17.38
2018-10-05T14:24:24.459Z,18.01
2018-10-05T14:27:48.956Z,18.19
2018-10-05T14:31:13.376Z,16.28
2018-10-05T14:34:37.798Z,16.82
2018-10-05T14:38:02.261Z,15.83
2018-10-05T14:41:26.639Z,18.18
2018-10-05T14:44:51.060Z,16.95
2018-10-05T14:48:15.455Z,17.16
2018-10-05T14:51:39.849Z,17.53
2018-10-05T14:55:04.325Z,17.27
2018-10-05T14:58:28.761Z,16.97
2018-10-05T15:01:53.165Z,15.99
2018-10-05T15:05:17.586Z,16.28
2018-10-05T15:08:42.016Z,16.82
2018-10-05T15:12:06.459Z,16.09
2018-10-05T15:15:30.938Z,15.26
2018-10-05T15:18:55.367Z,15.45
2018-10-05T15:22:19.839Z,14.07
2018-10-05T15:25:44.252Z,13.29
2018-10-05T15:29:08.730Z,12.56
2018-10-05T15:32:33.131Z,12.68
2018-10-05T15:35:57.575Z,12.21
2018-10-05T15:39:21.971Z,11.96
2018-10-05T15:42:46.401Z,12.20
2018-10-05T15:46:11.704Z,12.83
2018-10-05T15:49:36.612Z,11.56
2018-10-05T15:53:01.124Z,15.81
2018-10-05T15:56:25.463Z,16.69
2018-10-05T15:59:50.077Z,19.25
2018-10-05T16:03:14.471Z,21.18
2018-10-05T16:06:38.937Z,23.54
2018-10-05T16:10:03.437Z,23.72
2018-10-05T16:13:27.842Z,26.69
2018-10-05T16:16:52.261Z,26.63
2018-10-05T16:20:16.725Z,28.35
2018-10-05T16:23:41.891Z,28.94
2018-10-05T16:27:06.404Z,28.81
2018-10-05T16:30:30.825Z,28.26
2018-10-05T16:33:55.363Z,29.57
2018-10-05T16:37:19.804Z,32.04
2018-10-05T16:40:44.210Z,33.05
2018-10-05T16:44:08.607Z,31.80
2018-10-05T16:47:34.451Z,33.36
2018-10-05T16:50:58.912Z,32.51
2018-10-05T16:54:23.346Z,33.36
2018-10-05T16:57:48.048Z,34.40
2018-10-05T17:01:13.108Z,35.66
2018-10-05T17:04:37.972Z,36.63
2018-10-05T17:08:02.981Z,36.38
2018-10-05T17:11:27.970Z,39.25
2018-10-05T17:14:52.417Z,40.97
2018-10-05T17:18:17.009Z,41.48
2018-10-05T17:21:42.068Z,41.37
2018-10-05T17:25:07.490Z,41.34
2018-10-05T17:28:32.594Z,41.72
2018-10-05T17:31:57.499Z,43.04
2018-10-05T17:35:22.212Z,43.46
2018-10-05T17:38:46.895Z,43.77
2018-10-05T17:42:11.379Z,45.60
2018-10-05T17:45:36.420Z,45.80
2018-10-05T17:49:01.701Z,46.28
2018-10-05T17:52:26.519Z,46.25
2018-10-05T17:55:51.978Z,46.61
2018-10-05T17:59:19.465Z,45.99
2018-10-05T18:02:46.782Z,46.73
2018-10-05T18:06:11.574Z,47.06
2018-10-05T18:09:36.644Z,47.99
2018-10-05T18:13:02.092Z,47.09
2018-10-05T18:16:26.515Z,45.25
2018-10-05T18:19:51.013Z,44.26
2018-10-05T18:23:15.455Z,44.19
2018-10-05T18:26:39.941Z,43.58
2018-10-05T18:30:04.440Z,43.10
2018-10-05T18:33:28.854Z,42.74
2018-10-05T18:36:53.830Z,43.48
2018-10-05T18:40:18.365Z,44.13
2018-10-05T18:43:42.830Z,43.85
2018-10-05T18:47:09.204Z,43.94
2018-10-05T18:50:34.187Z,44.57
2018-10-05T18:53:59.541Z,44.09
2018-10-05T18:57:24.782Z,44.33
2018-10-05T19:00:50.152Z,45.63
2018-10-05T19:04:14.971Z,44.62
2018-10-05T19:07:40.134Z,45.72
2018-10-05T19:11:04.823Z,46.60
2018-10-05T19:14:29.499Z,47.02
2018-10-05T19:17:54.236Z,47.78
2018-10-05T19:21:19.276Z,47.81
2018-10-05T19:24:43.971Z,48.22
2018-10-05T19:28:08.510Z,46.92
2018-10-05T19:31:33.596Z,47.55
2018-10-05T19:34:58.102Z,48.88
2018-10-05T19:38:22.614Z,47.71
2018-10-05T19:41:47.220Z,49.30
2018-10-05T19:45:11.847Z,48.69
2018-10-05T19:48:36.245Z,49.29
2018-10-05T19:52:00.653Z,50.45
2018-10-05T19:55:25.062Z,49.95
2018-10-05T19:58:49.484Z,50.56
2018-10-05T20:02:13.949Z,50.22
2018-10-05T20:05:38.330Z,50.17
2018-10-05T20:09:02.795Z,50.43
2018-10-05T20:12:27.270Z,51.24
2018-10-05T20:15:51.762Z,50.60
2018-10-05T20:19:16.240Z,50.71
2018-10-05T20:22:40.736Z,51.47
2018-10-05T20:26:05.195Z,52.02
2018-10-05T20:29:29.656Z,51.94
2018-10-05T20:32:54.088Z,52.07
2018-10-05T20:36:18.649Z,51.90
2018-10-05T20:39:42.979Z,52.03
2018-10-05T20:43:07.750Z,52.57
2018-10-05T20:46:32.216Z,53.81
2018-10-05T20:49:57.204Z,52.81
2018-10-05T20:53:22.115Z,53.59
2018-10-05T20:56:46.582Z,53.46
2018-10-05T21:00:11.015Z,54.11
2018-10-05T21:03:35.416Z,53.98
2018-10-05T21:07:00.612Z,54.88
2018-10-05T21:10:25.133Z,54.43
2018-10-05T21:13:49.768Z,55.76
2018-10-05T21:17:14.743Z,54.78
2018-10-05T21:20:39.547Z,55.21
2018-10-05T21:24:04.349Z,55.17
2018-10-05T21:27:28.998Z,56.20
2018-10-05T21:30:53.714Z,55.58
2018-10-05T21:34:18.175Z,55.54
2018-10-05T21:37:42.645Z,55.80
2018-10-05T21:41:07.351Z,56.36
2018-10-05T21:44:31.825Z,55.50
2018-10-05T21:47:56.295Z,57.07
2018-10-05T21:51:20.694Z,57.52
2018-10-05T21:54:45.068Z,56.56
2018-10-05T21:58:09.502Z,57.18
2018-10-05T22:01:33.971Z,57.51
2018-10-05T22:04:58.370Z,57.37
2018-10-05T22:08:22.768Z,57.42
2018-10-05T22:11:47.262Z,57.75
2018-10-05T22:15:11.646Z,58.18
2018-10-05T22:18:36.060Z,57.55
2018-10-05T22:22:00.549Z,58.04
2018-10-05T22:25:25.021Z,58.72
2018-10-05T22:28:49.457Z,58.42
2018-10-05T22:32:13.872Z,59.13
2018-10-05T22:35:38.476Z,58.75
2018-10-05T22:39:02.959Z,58.53
2018-10-05T22:42:27.417Z,60.12
2018-10-05T22:45:51.992Z,60.53
2018-10-05T22:49:16.685Z,59.18
2018-10-05T22:52:41.151Z,59.78
2018-10-05T22:56:05.594Z,60.29
2018-10-05T22:59:30.172Z,60.69
2018-10-05T23:02:54.632Z,60.26
2018-10-05T23:06:19.102Z,60.54
2018-10-05T23:09:43.501Z,62.79
2018-10-05T23:13:07.975Z,61.56
2018-10-05T23:16:32.692Z,62.96
2018-10-05T23:19:57.304Z,62.79
2018-10-05T23:23:21.735Z,62.77
2018-10-05T23:26:46.148Z,63.31
2018-10-05T23:30:10.580Z,62.72
2018-10-05T23:33:35.023Z,62.13
2018-10-05T23:36:59.446Z,62.68
2018-10-05T23:40:23.873Z,64.90
2018-10-05T23:43:48.290Z,64.72
2018-10-05T23:47:12.689Z,64.55
2018-10-05T23:50:37.137Z,65.44
2018-10-05T23:54:01.552Z,65.27
2018-10-05T23:57:25.995Z,65.69
